Latest Weather Observations for Christmas Creek

IDW60801

Issued at 7:33 am WST Monday 27 February 2017 (issued every 30 minutes, with the page automatically refreshed every 10 minutes)

About weather observations | Map of weather stations | Latest weather observations for WA | Other Formats
Station Details ID: 505049 Name: CHRISTMAS CREEK Lat: -22.36 Lon: 119.65 Height: 437.21 m
Data from the previous 72 hours. | See also: Recent months for locations in Western Australia
Date/Time
WST
Temp
°C
App
Temp
°C
Dew
Point
°C
Rel
Hum
%
Delta-T
°C
Wind Press
QNH
hPa
Press
MSL
hPa
Rain since
9am
mm
Dir  Spd
km/h
Gust
km/h
Spd
kts
Gust
kts
27/07:30am 23.3 23.2 18.8 76 2.9 E 17 26 9 14 1014.5 1011.0 16.8
27/07:00am 23.1 23.5 19.1 78 2.6 ENE 15 20 8 11 1014.7 1011.2 16.8
27/06:30am 23.1 24.0 19.3 79 2.5 ENE 13 22 7 12 1015.1 1011.6 16.8
27/06:00am 22.9 23.2 19.5 81 2.2 ENE 17 22 9 12 1015.1 1011.6 16.8
27/05:30am 23.6 21.9 18.9 75 3.0 ENE 26 39 14 21 1014.8 1011.3 16.8
27/05:00am 22.9 20.4 20.1 84 1.8 ENE 33 46 18 25 1014.2 1010.7 16.8
27/04:30am 23.4 20.9 19.8 80 2.4 ENE 32 48 17 26 1013.5 1009.9 16.8
27/04:26am 23.4 21.2 19.5 79 2.5 ENE 30 48 16 26 1013.5 1009.9 16.8
27/04:00am 23.3 21.6 19.0 77 2.8 ENE 26 39 14 21 1013.1 1009.6 16.8
27/03:30am 24.2 24.0 19.7 76 2.9 ENE 20 28 11 15 1012.9 1009.4 16.8
27/03:00am 23.7 22.8 19.0 75 3.0 ENE 22 35 12 19 1012.6 1009.1 16.8
27/02:30am 22.9 23.2 18.7 77 2.7 ENE 15 20 8 11 1012.9 1009.4 16.6
27/02:00am 23.0 22.4 18.5 76 2.9 E 19 28 10 15 1013.5 1009.9 16.6
27/01:30am 22.8 22.1 18.6 77 2.7 E 20 32 11 17 1014.0 1010.5 16.6
27/01:00am 22.3 22.4 19.1 82 2.1 ENE 17 24 9 13 1014.7 1011.2 16.6
27/12:30am 21.8 19.9 19.4 86 1.6 ENE 28 43 15 23 1015.0 1011.5 16.4
27/12:26am 21.8 20.0 19.5 87 1.5 NE 28 43 15 23 1015.1 1011.6 16.2
27/12:03am 21.8 20.0 20.3 91 1.0 NE 30 43 16 23 1016.2 1012.7 14.4
27/12:00am 22.0 19.8 20.3 90 1.1 NE 32 44 17 24 1016.3 1012.8 14.0
 
Date/Time
WST
Temp
°C
App
Temp
°C
Dew
Point
°C
Rel
Hum
%
Delta-T
°C
Wind Press
QNH
hPa
Press
MSL
hPa
Rain since
9am
mm
Dir  Spd
km/h
Gust
km/h
Spd
kts
Gust
kts
26/11:46pm 22.4 19.8 20.7 90 1.1 NNE 35 54 19 29 1016.1 1012.6 13.6
26/11:30pm 23.3 19.6 19.9 81 2.2 NE 39 54 21 29 1015.5 1012.0 13.4
26/11:06pm 25.4 24.7 18.6 66 4.4 ENE 20 69 11 37 1014.4 1010.9 13.4
26/11:00pm 25.3 26.2 18.5 66 4.4 ENE 11 17 6 9 1013.6 1010.0 13.4
26/10:30pm 25.5 24.9 18.4 65 4.6 E 19 26 10 14 1013.5 1009.9 13.4
26/10:00pm 25.2 24.5 18.6 67 4.3 E 20 32 11 17 1014.0 1010.5 13.4
26/09:30pm 25.3 23.9 18.0 64 4.7 ESE 22 30 12 16 1014.1 1010.6 13.4
26/09:00pm 24.7 23.5 18.4 68 4.1 ESE 22 32 12 17 1013.9 1010.4 13.4
26/08:30pm 24.8 23.6 19.2 71 3.6 ESE 24 35 13 19 1014.0 1010.5 13.4
26/08:00pm 24.6 25.2 21.1 81 2.3 ESE 19 30 10 16 1013.9 1010.4 13.4
26/07:30pm 24.7 25.4 21.2 81 2.3 E 19 24 10 13 1013.6 1010.0 13.4
26/07:00pm 24.4 26.2 21.1 82 2.2 E 13 28 7 15 1012.7 1009.2 13.4
26/06:30pm 25.6 26.7 21.3 77 2.9 E 17 22 9 12 1013.0 1009.5 12.8
26/06:00pm 27.7 30.5 21.5 69 4.2 ENE 9 13 5 7 1012.8 1009.3 12.6
26/05:30pm 26.9 30.5 22.1 75 3.3 SW 6 11 3 6 1011.8 1008.3 12.6
26/05:00pm 26.7 29.1 20.8 70 4.0 SW 9 17 5 9 1011.4 1007.8 12.6
26/04:30pm 26.5 29.9 21.7 75 3.3 SW 6 9 3 5 1010.9 1007.3 12.6
26/04:00pm 26.7 30.0 20.8 70 4.0 SSE 4 6 2 3 1011.8 1008.3 12.6
26/03:30pm 25.2 28.5 21.9 82 2.2 SSE 7 15 4 8 1012.0 1008.5 12.6
26/03:00pm 23.1 25.1 20.8 87 1.5 WSW 11 19 6 10 1011.3 1007.7 12.4
26/02:53pm 23.1 24.5 21.0 88 1.4 SW 15 26 8 14 1011.9 1008.4 12.4
26/02:30pm 20.4 13.8 18.2 87 1.4 NE 50 139 27 75 1012.4 1008.9 9.8
26/02:29pm 20.4 13.4 18.2 87 1.4 NE 52 139 28 75 1012.6 1009.1 8.4
26/02:27pm 20.8 14.0 18.7 88 1.3 NE 52 139 28 75 1012.6 1009.1 5.6
26/02:26pm 20.9 14.4 18.5 86 1.5 NE 50 139 27 75 1012.1 1008.6 4.6
26/02:24pm 22.9 17.7 18.7 77 2.7 NE 44 132 24 71 1009.3 1005.7 1.8
26/02:23pm 26.9 23.0 19.5 64 4.9 NE 39 115 21 62 1010.2 1006.7 0.8
26/02:21pm 30.5 27.6 17.9 47 8.2 NE 30 63 16 34 1010.9 1007.3 0.4
26/02:12pm 33.6 32.1 17.7 38 10.4 ENE 22 50 12 27 1010.4 1006.9 0.4
26/02:00pm 34.8 33.8 16.6 33 11.8 E 17 24 9 13 1010.2 1006.7 0.4
26/01:30pm 35.6 35.1 16.8 32 12.2 E 15 32 8 17 1010.6 1007.1 0.4
26/01:00pm 35.0 35.6 18.6 38 10.9 E 13 24 7 13 1011.3 1007.7 0.4
26/12:30pm 30.8 27.1 16.0 40 9.4 NE 30 59 16 32 1012.2 1008.7 0.4
26/12:29pm 30.7 26.9 16.7 43 9.0 ENE 32 59 17 32 1012.3 1008.8 0.2
26/12:25pm 31.0 27.2 17.3 43 8.8 E 33 59 18 32 1012.2 1008.7 0.0
26/12:21pm 33.8 30.9 16.2 35 11.3 ENE 26 59 14 32 1011.7 1008.1 0.0
26/12:00pm 34.8 33.6 16.1 32 12.0 ENE 17 30 9 16 1012.1 1008.6 0.0
26/11:30am 34.2 32.8 16.5 34 11.4 ENE 19 30 10 16 1012.4 1008.9 0.0
26/11:00am 34.3 33.3 17.5 36 11.0 NE 19 28 10 15 1012.8 1009.3 0.0
26/10:30am 33.7 33.4 17.4 37 10.6 ENE 15 24 8 13 1013.1 1009.6 0.0
26/10:00am 33.1 33.5 17.3 39 10.3 E 11 20 6 11 1013.3 1009.7 0.0
26/09:30am 32.1 32.0 17.9 42 9.3 ENE 15 26 8 14 1013.6 1010.0 0.0
26/09:00am 31.9 32.1 18.5 45 8.8 NE 15 20 8 11 1013.7 1010.1 0.0
26/08:30am 30.6 29.7 18.3 47 8.0 NNE 20 32 11 17 1013.7 1010.1 0.0
26/08:00am 29.8 28.9 18.3 50 7.5 NNE 20 28 11 15 1013.7 1010.1 0.0
26/07:30am 29.4 29.2 17.6 49 7.6 NE 15 24 8 13 1013.5 1009.9 0.0
26/07:00am 28.2 28.5 17.1 51 7.1 NE 11 15 6 8 1013.1 1009.6 0.0
26/06:30am 26.9 26.8 15.9 51 6.9 NE 11 17 6 9 1012.8 1009.3 0.0
26/06:00am 26.7 25.4 14.8 48 7.3 NE 15 19 8 10 1012.6 1009.1 0.0
26/05:30am 27.0 25.5 14.1 45 7.8 NE 15 19 8 10 1012.3 1008.8 0.0
26/05:00am 27.7 26.3 13.3 41 8.7 ENE 13 20 7 11 1012.4 1008.9 0.0
26/04:30am 24.2 24.8 14.3 54 6.0 E 4 6 2 3 1012.2 1008.7 0.0
26/04:00am 23.8 25.2 15.3 59 5.2 SSE 2 4 1 2 1012.0 1008.5 0.0
26/03:30am 25.4 26.1 13.3 47 7.2 SW 2 4 1 2 1011.7 1008.1 0.0
26/03:00am 25.2 24.9 12.8 46 7.3 SW 6 6 3 3 1011.7 1008.1 0.0
26/02:30am 26.2 26.0 11.9 41 8.4 SE 4 6 2 3 1011.9 1008.4 0.0
26/02:00am 28.1 27.3 11.2 35 9.8 E 6 7 3 4 1012.1 1008.6 0.0
26/01:30am 27.3 26.9 12.5 40 8.8 ENE 6 7 3 4 1012.2 1008.7 0.0
26/01:00am 28.2 27.7 10.9 34 10.0 ENE 4 6 2 3 1012.4 1008.9 0.0
26/12:30am 28.8 27.9 10.5 32 10.6 E 6 7 3 4 1012.7 1009.2 0.0
26/12:00am 27.1 27.1 12.3 39 8.7 ESE 4 7 2 4 1012.9 1009.4 0.0
 
Date/Time
WST
Temp
°C
App
Temp
°C
Dew
Point
°C
Rel
Hum
%
Delta-T
°C
Wind Press
QNH
hPa
Press
MSL
hPa
Rain since
9am
mm
Dir  Spd
km/h
Gust
km/h
Spd
kts
Gust
kts
25/11:30pm 28.4 27.8 12.3 37 9.6 NE 7 9 4 5 1013.0 1009.5 0.0
25/11:00pm 28.6 28.2 12.5 37 9.6 NE 6 7 3 4 1013.4 1009.8 0.0
25/10:30pm 29.3 28.5 11.8 34 10.3 NE 7 9 4 5 1013.5 1009.9 0.0
25/10:00pm 29.1 28.4 12.1 35 10.1 ENE 7 9 4 5 1013.5 1009.9 0.0
25/09:30pm 30.6 29.3 11.1 30 11.5 NE 9 11 5 6 1013.5 1009.9 0.0
25/09:00pm 30.7 29.2 10.6 29 11.7 ENE 9 13 5 7 1013.5 1009.9 0.0
25/08:30pm 31.6 30.6 10.3 27 12.4 ENE 6 7 3 4 1013.1 1009.6 0.0
25/08:00pm 32.4 31.3 9.9 25 13.1 E 6 9 3 5 1012.8 1009.3 0.0
25/07:30pm 34.0 32.0 8.6 21 14.6 ESE 9 13 5 7 1012.6 1009.1 0.0
25/07:00pm 34.5 32.0 8.3 20 15.0 SE 11 17 6 9 1012.3 1008.8 0.0
25/06:30pm 35.3 33.0 8.9 20 15.3 SE 11 15 6 8 1012.0 1008.5 0.0
25/06:00pm 36.5 32.3 7.5 17 16.6 SE 19 26 10 14 1011.7 1008.1 0.0
25/05:30pm 37.1 32.8 7.1 16 17.1 SE 19 28 10 15 1011.5 1007.9 0.0
25/05:00pm 37.5 33.3 7.4 16 17.2 SE 19 28 10 15 1011.4 1007.8 0.0
25/04:30pm 38.0 33.7 7.8 16 17.4 SE 20 35 11 19 1011.5 1007.9 0.0
25/04:00pm 38.2 33.7 7.0 15 17.8 SE 20 35 11 19 1011.7 1008.1 0.0
25/03:30pm 37.9 32.6 6.8 15 17.7 ESE 24 35 13 19 1011.9 1008.4 0.0
25/03:00pm 37.9 33.4 6.8 15 17.7 ESE 20 37 11 20 1012.3 1008.8 0.0
25/02:30pm 37.9 34.5 7.7 16 17.4 SE 15 30 8 16 1012.6 1009.1 0.0
25/02:00pm 37.3 33.1 7.3 16 17.1 E 19 28 10 15 1013.1 1009.6 0.0
25/01:30pm 37.1 31.9 7.1 16 17.1 ENE 24 39 13 21 1013.6 1010.0 0.0
25/01:00pm 38.0 33.1 6.9 15 17.7 ENE 22 39 12 21 1013.9 1010.4 0.0
25/12:30pm 36.7 31.4 6.8 16 16.9 E 24 41 13 22 1014.3 1010.8 0.0
25/12:00pm 36.4 31.2 7.4 17 16.5 ENE 24 39 13 21 1014.8 1011.3 0.0
25/11:30am 36.6 30.9 8.4 18 16.3 ENE 28 44 15 24 1015.1 1011.6 0.0
25/11:00am 35.8 29.0 7.8 18 16.0 ENE 33 46 18 25 1015.5 1012.0 0.0
25/10:30am 35.1 29.5 8.8 20 15.2 ENE 28 41 15 22 1015.9 1012.3 0.0
25/10:00am 34.5 28.2 9.0 21 14.7 ENE 32 41 17 22 1016.1 1012.6 0.0
25/09:30am 33.9 29.0 8.5 21 14.5 E 24 41 13 22 1016.3 1012.8 0.0
25/09:00am 32.7 26.2 8.2 22 13.9 E 32 43 17 23 1016.4 1012.9 0.0
25/08:30am 31.7 26.2 9.3 25 12.9 E 28 44 15 24 1016.2 1012.7 0.0
25/08:00am 30.7 26.3 9.0 26 12.3 ESE 22 32 12 17 1016.0 1012.5 0.0
25/07:30am 29.7 26.6 10.3 30 11.2 ESE 17 24 9 13 1016.0 1012.5 0.0
25/07:00am 28.7 26.0 10.4 32 10.5 E 15 24 8 13 1015.9 1012.3 0.0
25/06:30am 28.3 25.3 10.5 33 10.3 ESE 17 22 9 12 1015.5 1012.0 0.0
25/06:00am 28.2 25.5 10.4 33 10.2 ESE 15 22 8 12 1015.1 1011.6 0.0
25/05:30am 28.6 25.9 10.3 32 10.5 ESE 15 22 8 12 1014.7 1011.2 0.0
25/05:00am 28.5 26.3 10.7 33 10.3 ESE 13 20 7 11 1014.4 1010.9 0.0
25/04:30am 25.3 25.3 14.1 50 6.8 SE 7 9 4 5 1014.2 1010.7 0.0
25/04:00am 26.4 26.5 13.9 46 7.5 ESE 6 7 3 4 1013.9 1010.4 0.0
25/03:30am 26.2 26.4 14.3 48 7.2 SSE 6 9 3 5 1013.8 1010.2 0.0
25/03:00am 27.7 26.8 13.6 42 8.5 SE 11 20 6 11 1013.8 1010.2 0.0
25/02:30am 27.0 27.3 14.4 46 7.7 S 6 6 3 3 1013.7 1010.1 0.0
25/02:00am 29.4 28.7 11.9 34 10.4 E 7 11 4 6 1013.6 1010.0 0.0
25/01:30am 29.8 28.8 12.3 34 10.4 E 9 17 5 9 1013.9 1010.4 0.0
25/01:00am 30.4 29.3 11.9 32 11.0 E 9 13 5 7 1014.0 1010.5 0.0
25/12:30am 30.4 29.7 11.9 32 11.0 ESE 7 9 4 5 1014.4 1010.9 0.0
25/12:00am 31.1 29.7 11.0 29 11.8 E 9 13 5 7 1014.7 1011.2 0.0
 
Date/Time
WST
Temp
°C
App
Temp
°C
Dew
Point
°C
Rel
Hum
%
Delta-T
°C
Wind Press
QNH
hPa
Press
MSL
hPa
Rain since
9am
mm
Dir  Spd
km/h
Gust
km/h
Spd
kts
Gust
kts
24/11:30pm 31.1 29.9 11.5 30 11.6 SE 9 15 5 8 1014.8 1011.3 0.0
24/11:00pm 31.3 30.0 11.1 29 11.9 ESE 9 13 5 7 1014.8 1011.3 0.0
24/10:30pm 31.9 30.9 12.2 30 11.8 ESE 9 13 5 7 1014.8 1011.3 0.0
24/10:00pm 31.5 31.2 13.3 33 11.1 ESE 7 9 4 5 1014.9 1011.4 0.0
24/09:30pm 32.1 31.6 12.8 30 11.7 ESE 7 9 4 5 1015.0 1011.5 0.0
24/09:00pm 32.3 31.9 12.5 30 12.0 ESE 6 9 3 5 1014.9 1011.4 0.0
24/08:30pm 32.1 32.2 12.8 30 11.7 ESE 4 6 2 3 1014.7 1011.2 0.0
24/08:00pm 31.4 31.3 13.2 33 11.1 SE 6 7 3 4 1014.5 1011.0 0.0
24/07:30pm 33.1 33.1 11.0 26 13.1 E 2 4 1 2 1014.2 1010.7 0.0
24/07:00pm 35.2 33.8 9.6 21 15.0 ESE 7 11 4 6 1014.0 1010.5 0.0
24/06:30pm 36.0 34.0 8.7 19 15.8 ESE 9 13 5 7 1013.5 1009.9 0.0
24/06:00pm 36.7 34.9 9.3 19 16.1 ENE 9 17 5 9 1013.3 1009.7 0.0
24/05:30pm 37.2 34.1 8.9 18 16.5 ENE 15 20 8 11 1013.1 1009.6 0.0
24/05:00pm 37.8 34.6 8.6 17 17.0 ENE 15 22 8 12 1013.1 1009.6 0.0
24/04:30pm 38.5 33.3 7.3 15 17.9 ENE 24 32 13 17 1013.1 1009.6 0.0
24/04:00pm 38.1 35.2 9.6 18 16.9 E 15 24 8 13 1013.0 1009.5 0.0
24/03:30pm 37.7 34.2 10.1 19 16.5 E 19 28 10 15 1013.1 1009.6 0.0
24/03:00pm 38.5 34.3 8.2 16 17.6 ESE 20 37 11 20 1013.3 1009.7 0.0
24/02:30pm 38.3 34.1 8.1 16 17.5 E 20 30 11 16 1013.6 1010.0 0.0
24/02:00pm 37.7 33.8 9.3 18 16.7 ESE 20 32 11 17 1014.0 1010.5 0.0
24/01:30pm 37.7 34.9 10.1 19 16.5 SE 15 32 8 17 1014.4 1010.9 0.0
24/01:00pm 36.9 33.6 11.7 22 15.3 SSE 20 32 11 17 1014.9 1011.4 0.0
24/12:30pm 36.1 32.8 11.0 22 15.1 SE 19 30 10 16 1015.4 1011.9 0.0
24/12:00pm 35.5 33.2 11.8 24 14.3 SSE 15 30 8 16 1016.0 1012.5 0.0
24/11:30am 34.3 31.1 11.4 25 13.7 SE 19 30 10 16 1016.4 1012.9 0.0
24/11:00am 33.5 30.3 11.9 27 13.0 SE 20 30 11 16 1016.8 1013.3 0.0
24/10:30am 31.5 27.7 11.3 29 12.0 SE 22 30 12 16 1017.2 1013.7 0.0
24/10:00am 30.5 27.0 11.0 30 11.4 SE 20 30 11 16 1017.6 1014.1 0.0
24/09:30am 28.7 25.3 10.4 32 10.5 SE 19 28 10 15 1017.9 1014.4 0.0
24/09:00am 27.9 24.6 9.7 32 10.3 SE 17 30 9 16 1018.4 1014.9 0.0
24/08:30am 26.7 21.4 8.6 32 10.0 SE 26 33 14 18 1018.3 1014.8 0.0
24/08:00am 26.1 23.5 9.5 35 9.3 SE 13 20 7 11 1018.2 1014.7 0.0

Other Formats:

Comma delimited format used in spreadsheet applications
http://www.bom.gov.au/fwo/IDW60801/IDW60801.99737.axf

JavaScript Object Notation format (JSON) in row-major order
http://www.bom.gov.au/fwo/IDW60801/IDW60801.99737.json